Forside
METAR-TAF:

METAR-TAF

Lufthavne :

Muscatine, Iowa, USA

Breddekreds: 41-22N, længdekreds: 091-09W, højde: 167 m

Aktuelle vejr

Denne rapport blev lavet for 16 minutter siden, kl. 22:55 UTC
Vind stille
Temperatur 4°C
Fugtighed 70%
Tryk 1018 hPa
Sigt: 16.1 km
skyfri

METAR: KMUT 162255Z AUTO 00000KT 10SM CLR 04/M01 A3007 RMK AO2

Tid: 17:11 (23:11 UTC)


TAF: fraværende

Vejrobservationer og prognoser fra mere end 4000 lufthavne (METAR og TAF).

De gule og røde prikker repræsenterer de meteorologiske stationer.

Flyt musen over at se navnet på stationen.

Så klik over at se vejr observationer og prognoser.

At skifte det kort: Klik på de grønne knapper med et sort kors for at zoome ind; på den grønne knap med en bindestreg for at zoome ud; eller på de grønne pile for tilstødende kort.


METAR-TAF: